Time;durP1;ratioP1;P1;durP2;ratioP2;P2;SDS_P1;SDS_P2;PMS_P1;PMS_P2;Temp;Humidity;BMP_temperature;BMP_pressure;BME280_temperature;BME280_humidity;BME280_pressure;Samples;Min_cycle;Max_cycle;Signal;HPM_P1;HPM_P2
2022/06/23 00:00:58;;;;;;;3.50;1.13;;;;;;;16.99;100.00;96039.00;4964336;28;20240;-83
2022/06/23 00:03:28;;;;;;;6.53;1.70;;;;;;;16.89;100.00;96039.03;4976943;28;20207;-83
2022/06/23 00:06:00;;;;;;;7.63;1.40;;;;;;;16.83;100.00;96040.16;4967975;28;20204;-83
2022/06/23 00:08:28;;;;;;;2.80;1.50;;;;;;;16.80;100.00;96046.97;4967574;28;20220;-83
2022/06/23 00:10:57;;;;;;;2.80;1.30;;;;;;;16.79;100.00;96047.25;4984995;28;20295;-82
2022/06/23 00:13:27;;;;;;;4.13;1.10;;;;;;;16.83;100.00;96045.59;4968270;28;20215;-83
2022/06/23 00:15:56;;;;;;;3.27;1.07;;;;;;;16.78;100.00;96038.25;4992139;28;20238;-83
2022/06/23 00:18:26;;;;;;;2.70;1.40;;;;;;;16.79;100.00;96044.50;4962253;28;20216;-83
2022/06/23 00:20:56;;;;;;;3.30;1.30;;;;;;;16.71;100.00;96040.44;4968399;28;20214;-83
2022/06/23 00:23:27;;;;;;;3.47;1.60;;;;;;;16.62;100.00;96037.47;4976227;28;20207;-82
2022/06/23 00:25:59;;;;;;;2.67;1.30;;;;;;;16.62;100.00;96029.28;4955139;28;20213;-83
2022/06/23 00:28:30;;;;;;;2.73;1.43;;;;;;;16.72;100.00;96033.91;4960325;28;20299;-83
2022/06/23 00:31:01;;;;;;;2.50;1.20;;;;;;;16.80;100.00;96030.59;4955990;28;20293;-83
2022/06/23 00:33:31;;;;;;;1.97;1.33;;;;;;;16.74;100.00;96029.00;4961292;28;20263;-82
2022/06/23 00:36:00;;;;;;;3.50;1.47;;;;;;;16.69;100.00;96033.63;4969063;28;20234;-83
2022/06/23 00:38:30;;;;;;;5.47;1.33;;;;;;;16.66;100.00;96034.19;4969450;28;20212;-83
2022/06/23 00:41:00;;;;;;;4.53;1.60;;;;;;;16.74;100.00;96033.63;4966192;28;20212;-83
2022/06/23 00:43:29;;;;;;;3.93;1.47;;;;;;;16.68;100.00;96030.09;4968751;28;20303;-83
2022/06/23 00:46:09;;;;;;;4.13;1.27;;;;;;;16.69;100.00;96034.44;4970129;28;20232;-82
2022/06/23 00:48:41;;;;;;;3.50;1.30;;;;;;;16.61;100.00;96035.84;4967293;28;20216;-83
2022/06/23 00:51:14;;;;;;;3.97;1.43;;;;;;;16.60;100.00;96036.06;4970333;28;20208;-82
2022/06/23 00:53:50;;;;;;;6.47;1.63;;;;;;;16.65;100.00;96033.38;4981804;28;20208;-83
2022/06/23 00:56:33;;;;;;;2.57;1.37;;;;;;;16.76;100.00;96040.41;4970279;28;20255;-83
2022/06/23 00:59:06;;;;;;;3.50;1.30;;;;;;;16.82;100.00;96049.44;4986181;28;20216;-83
2022/06/23 01:01:43;;;;;;;3.20;1.17;;;;;;;16.88;100.00;96045.59;4973899;28;20215;-83
2022/06/23 01:04:27;;;;;;;3.40;1.37;;;;;;;16.98;100.00;96045.56;4975285;28;20234;-82
2022/06/23 01:07:00;;;;;;;3.40;1.03;;;;;;;16.99;100.00;96037.09;4958626;28;20215;-83
2022/06/23 01:09:37;;;;;;;3.37;1.53;;;;;;;16.97;100.00;96033.81;4968639;28;20304;-83
2022/06/23 01:12:16;;;;;;;4.83;1.43;;;;;;;17.03;100.00;96034.63;4980392;28;20278;-83
2022/06/23 01:14:48;;;;;;;2.77;1.40;;;;;;;17.00;100.00;96032.47;4964461;28;20263;-83
2022/06/23 01:17:21;;;;;;;1.40;1.27;;;;;;;17.06;100.00;96042.25;4965741;28;20205;-83
2022/06/23 01:20:12;;;;;;;2.87;1.40;;;;;;;17.08;100.00;96041.97;4965120;28;20291;-83
2022/06/23 01:23:03;;;;;;;1.57;1.10;;;;;;;17.12;100.00;96056.69;4963497;28;20208;-83
2022/06/23 01:25:48;;;;;;;1.40;1.20;;;;;;;17.06;100.00;96044.16;4960447;28;20204;-83
2022/06/23 01:28:18;;;;;;;2.23;1.20;;;;;;;17.14;100.00;96071.69;4977088;28;20244;-82
2022/06/23 01:30:52;;;;;;;3.17;1.13;;;;;;;17.17;100.00;96076.59;4963710;28;20211;-83
2022/06/23 01:33:25;;;;;;;1.37;1.00;;;;;;;17.16;100.00;96072.22;4975852;28;20255;-83
2022/06/23 01:36:01;;;;;;;2.10;1.07;;;;;;;17.15;100.00;96075.22;4965453;28;20224;-83
2022/06/23 01:38:51;;;;;;;5.73;1.50;;;;;;;17.12;100.00;96068.41;4983649;28;20204;-83
2022/06/23 01:41:25;;;;;;;5.40;1.67;;;;;;;17.13;100.00;96066.50;4967287;28;20204;-83
2022/06/23 01:44:00;;;;;;;3.77;1.53;;;;;;;17.12;100.00;96065.69;4991927;28;20211;-83
2022/06/23 01:46:35;;;;;;;7.90;1.50;;;;;;;17.10;100.00;96056.16;4967202;28;20230;-83
2022/06/23 01:49:07;;;;;;;3.27;1.50;;;;;;;17.12;100.00;96065.69;4970189;28;20216;-83
2022/06/23 01:51:46;;;;;;;3.10;1.50;;;;;;;17.00;100.00;96066.00;4976464;28;20263;-83
2022/06/23 01:54:18;;;;;;;3.33;1.50;;;;;;;17.02;100.00;96060.25;4975718;28;20224;-83
2022/06/23 01:56:56;;;;;;;3.93;1.60;;;;;;;17.06;100.00;96052.34;4965223;28;20234;-83
2022/06/23 01:59:38;;;;;;;4.13;1.53;;;;;;;17.05;100.00;96046.06;4968671;28;20208;-83
2022/06/23 02:02:27;;;;;;;5.20;1.60;;;;;;;16.95;100.00;96049.66;4972297;28;20262;-83
2022/06/23 02:05:01;;;;;;;6.93;1.37;;;;;;;16.95;100.00;96048.81;4968888;28;20204;-83
2022/06/23 02:07:35;;;;;;;3.93;1.47;;;;;;;16.93;100.00;96051.00;4968848;28;20212;-83
2022/06/23 02:10:10;;;;;;;3.10;1.40;;;;;;;16.87;100.00;96050.22;4980159;28;20214;-83
2022/06/23 02:12:46;;;;;;;4.83;1.70;;;;;;;16.80;100.00;96052.41;4969890;28;20203;-83
2022/06/23 02:15:20;;;;;;;5.20;1.73;;;;;;;16.73;100.00;96051.09;4982166;28;20256;-83
2022/06/23 02:17:52;;;;;;;4.80;1.50;;;;;;;16.71;100.00;96056.81;4989887;28;20208;-82
2022/06/23 02:20:40;;;;;;;4.07;1.73;;;;;;;16.77;100.00;96057.59;4968623;28;20234;-84
2022/06/23 02:23:22;;;;;;;4.23;1.57;;;;;;;16.78;100.00;96053.78;4960962;28;20288;-83
2022/06/23 02:25:55;;;;;;;7.30;2.00;;;;;;;16.77;100.00;96058.41;4967020;28;20209;-83
2022/06/23 02:28:36;;;;;;;7.43;1.60;;;;;;;16.79;100.00;96060.88;4965492;28;20295;-83
2022/06/23 02:31:14;;;;;;;4.07;1.60;;;;;;;16.70;100.00;96065.25;4967530;28;20203;-83
2022/06/23 02:33:50;;;;;;;5.23;1.63;;;;;;;16.67;100.00;96060.38;4966595;28;20223;-82
2022/06/23 02:36:42;;;;;;;3.67;1.60;;;;;;;16.68;100.00;96081.06;4999886;28;20224;-83
2022/06/23 02:39:18;;;;;;;6.30;1.70;;;;;;;16.60;100.00;96061.41;4947788;28;20315;-83
2022/06/23 02:41:49;;;;;;;3.87;1.63;;;;;;;16.60;100.00;96061.41;4974720;28;20207;-83
2022/06/23 02:44:37;;;;;;;3.57;1.50;;;;;;;16.53;100.00;96057.34;4969877;28;20219;-83
2022/06/23 02:47:26;;;;;;;5.17;1.50;;;;;;;16.49;100.00;96057.09;4974088;28;20222;-83
2022/06/23 02:50:09;;;;;;;6.07;1.83;;;;;;;16.48;100.00;96055.47;4975575;28;20208;-83
2022/06/23 02:53:05;;;;;;;2.70;1.37;;;;;;;16.51;100.00;96057.63;4966042;28;20268;-83
2022/06/23 02:55:48;;;;;;;3.60;1.53;;;;;;;16.51;100.00;96052.16;4970598;28;20354;-83
2022/06/23 02:58:20;;;;;;;5.00;1.60;;;;;;;16.43;100.00;96049.19;4975230;28;20231;-83
2022/06/23 03:00:51;;;;;;;7.83;1.50;;;;;;;16.46;100.00;96057.63;4962168;28;20251;-83
2022/06/23 03:03:27;;;;;;;4.50;1.57;;;;;;;16.40;100.00;96058.75;4961931;28;20301;-83
2022/06/23 03:06:00;;;;;;;4.90;1.73;;;;;;;16.37;100.00;96056.53;4961600;28;20227;-83
2022/06/23 03:08:33;;;;;;;4.67;1.63;;;;;;;16.41;100.00;96065.00;4970986;28;20208;-83
2022/06/23 03:11:03;;;;;;;8.83;1.70;;;;;;;16.46;100.00;96067.72;4988734;28;20279;-83
2022/06/23 03:13:43;;;;;;;3.93;1.87;;;;;;;16.41;100.00;96054.09;4961457;28;20255;-83
2022/06/23 03:16:20;;;;;;;4.47;1.70;;;;;;;16.41;100.00;96057.66;4971150;28;20319;-83
2022/06/23 03:18:56;;;;;;;3.70;1.60;;;;;;;16.33;100.00;96060.94;4971168;28;20262;-83
2022/06/23 03:21:28;;;;;;;4.93;1.60;;;;;;;16.34;100.00;96056.25;4958480;28;20243;-83
2022/06/23 03:24:05;;;;;;;5.60;1.60;;;;;;;16.30;100.00;96053.28;4977248;28;20216;-83
2022/06/23 03:26:40;;;;;;;4.17;1.50;;;;;;;16.25;100.00;96061.44;4968752;28;20219;-83
2022/06/23 03:29:16;;;;;;;8.63;2.20;;;;;;;16.26;100.00;96055.72;4986691;28;20226;-83
2022/06/23 03:31:50;;;;;;;4.27;1.53;;;;;;;16.24;100.00;96054.38;4975217;28;20234;-83
2022/06/23 03:34:24;;;;;;;5.90;1.80;;;;;;;16.29;100.00;96057.09;4971041;28;20215;-83
2022/06/23 03:36:55;;;;;;;3.27;1.60;;;;;;;16.33;100.00;96058.19;4966792;28;20223;-83
2022/06/23 03:42:23;;;;;;;7.83;1.77;;;;;;;16.29;100.00;96054.38;4960905;28;20204;-83
2022/06/23 03:44:56;;;;;;;4.83;1.67;;;;;;;16.30;100.00;96047.84;4967347;28;20283;-83
2022/06/23 03:47:31;;;;;;;4.63;2.10;;;;;;;16.33;100.00;96046.47;4967254;28;20208;-83
2022/06/23 03:50:05;;;;;;;5.73;1.60;;;;;;;16.38;100.00;96043.75;4960253;28;20239;-83
2022/06/23 03:52:38;;;;;;;7.27;1.80;;;;;;;16.28;100.00;96055.47;4967363;28;20235;-83
2022/06/23 03:55:17;;;;;;;4.33;1.53;;;;;;;16.16;100.00;96036.66;4960670;28;20254;-83
2022/06/23 03:57:48;;;;;;;3.33;1.70;;;;;;;16.09;100.00;96040.75;4969541;28;20235;-83
2022/06/23 04:00:22;;;;;;;3.53;1.60;;;;;;;16.04;100.00;96038.84;4961847;28;20219;-83
2022/06/23 04:02:55;;;;;;;3.63;1.80;;;;;;;16.08;100.00;96050.00;4970501;28;20210;-83
2022/06/23 04:05:28;;;;;;;3.37;1.50;;;;;;;16.11;100.00;96044.84;4965083;28;20649;-83
2022/06/23 04:07:58;;;;;;;4.17;1.63;;;;;;;16.14;100.00;96038.88;4969870;28;20303;-83
2022/06/23 04:10:30;;;;;;;7.17;1.70;;;;;;;16.22;100.00;96045.66;4966128;28;20232;-83
2022/06/23 04:13:02;;;;;;;3.77;1.47;;;;;;;16.29;100.00;96043.47;4959877;28;20216;-83
2022/06/23 04:15:33;;;;;;;6.27;1.80;;;;;;;16.33;100.00;96041.84;4979092;28;20211;-83
2022/06/23 04:18:04;;;;;;;3.23;1.57;;;;;;;16.25;100.00;96028.75;4965907;28;20208;-83
2022/06/23 04:20:38;;;;;;;6.13;1.87;;;;;;;16.28;100.00;96039.13;4966969;28;20215;-84
2022/06/23 04:23:09;;;;;;;6.47;1.83;;;;;;;16.34;100.00;96045.38;4967830;28;20278;-83
2022/06/23 04:25:44;;;;;;;4.93;1.67;;;;;;;16.30;100.00;96038.84;4961539;28;20204;-83
2022/06/23 04:28:21;;;;;;;8.20;1.60;;;;;;;16.27;100.00;96048.38;4971103;28;20212;-83
2022/06/23 04:30:49;;;;;;;6.53;1.87;;;;;;;16.26;100.00;96054.91;4977557;28;20207;-83
2022/06/23 04:33:20;;;;;;;5.23;1.60;;;;;;;16.27;100.00;96057.38;4971768;28;20263;-83
2022/06/23 04:35:52;;;;;;;9.47;1.83;;;;;;;16.31;100.00;96065.00;4970088;28;20225;-83
2022/06/23 04:38:26;;;;;;;5.23;2.70;;;;;;;16.35;100.00;96064.16;4973706;28;20216;-83
2022/06/23 04:41:00;;;;;;;5.50;1.60;;;;;;;16.40;100.00;96057.91;4970770;28;20212;-84
2022/06/23 04:43:35;;;;;;;3.67;1.93;;;;;;;16.37;100.00;96053.81;4971011;28;20208;-84
2022/06/23 04:46:09;;;;;;;5.47;1.80;;;;;;;16.38;100.00;96060.91;4971860;28;20212;-83
2022/06/23 04:48:54;;;;;;;8.07;2.33;;;;;;;16.33;100.00;96052.75;4972328;28;20218;-83
2022/06/23 04:51:30;;;;;;;6.13;2.00;;;;;;;16.37;100.00;96056.53;4987702;28;20205;-83
2022/06/23 04:54:02;;;;;;;4.83;2.30;;;;;;;16.37;100.00;96062.00;4970290;28;20243;-83
2022/06/23 04:56:44;;;;;;;5.03;2.20;;;;;;;16.39;100.00;96070.72;4971159;28;20234;-83
2022/06/23 04:59:33;;;;;;;6.30;2.00;;;;;;;16.43;100.00;96068.25;4999473;28;20212;-83
2022/06/23 05:02:03;;;;;;;6.27;2.00;;;;;;;16.39;100.00;96065.28;4969101;28;20309;-83
2022/06/23 05:04:33;;;;;;;4.80;2.17;;;;;;;16.38;100.00;96066.38;4973537;28;20211;-84
2022/06/23 05:07:03;;;;;;;6.83;1.77;;;;;;;16.40;100.00;96066.09;4969805;28;20285;-83
2022/06/23 05:09:34;;;;;;;4.93;1.77;;;;;;;16.33;100.00;96066.38;4969972;28;20208;-83
2022/06/23 05:12:05;;;;;;;6.87;1.93;;;;;;;16.31;100.00;96071.28;4973370;28;20227;-83
2022/06/23 05:14:39;;;;;;;7.90;1.83;;;;;;;16.32;100.00;96070.19;4973430;28;20262;-83
2022/06/23 05:17:13;;;;;;;6.97;2.23;;;;;;;16.34;100.00;96064.44;4970588;28;20228;-83
2022/06/23 05:19:42;;;;;;;3.90;1.70;;;;;;;16.37;100.00;96069.34;4984516;28;20208;-83
2022/06/23 05:22:18;;;;;;;5.87;2.30;;;;;;;16.39;100.00;96068.00;4982291;28;20218;-83
2022/06/23 05:24:47;;;;;;;5.50;1.50;;;;;;;16.41;100.00;96067.72;4970893;28;20255;-83
2022/06/23 05:27:23;;;;;;;5.23;1.60;;;;;;;16.36;100.00;96068.53;4988716;28;20300;-84
2022/06/23 05:29:54;;;;;;;2.97;1.67;;;;;;;16.37;100.00;96070.16;4978895;28;20270;-83
2022/06/23 05:32:28;;;;;;;4.30;1.70;;;;;;;16.31;100.00;96059.56;4967296;28;20235;-83
2022/06/23 05:35:02;;;;;;;5.97;2.13;;;;;;;16.33;100.00;96057.38;4965942;28;20209;-83
2022/06/23 05:37:37;;;;;;;4.93;1.90;;;;;;;16.32;100.00;96067.47;4973887;28;20259;-83
2022/06/23 05:40:19;;;;;;;4.67;1.70;;;;;;;16.26;100.00;96058.47;4990093;28;20250;-83
2022/06/23 05:42:49;;;;;;;4.87;1.83;;;;;;;16.28;100.00;96059.00;4964901;28;20200;-83
2022/06/23 05:45:21;;;;;;;5.17;2.40;;;;;;;16.29;100.00;96062.53;4970399;28;20204;-83
2022/06/23 05:47:49;;;;;;;5.60;2.13;;;;;;;16.28;100.00;96060.91;4971184;28;20212;-84
2022/06/23 05:50:21;;;;;;;9.23;2.77;;;;;;;16.24;100.00;96055.22;4986954;28;20219;-82
2022/06/23 05:52:56;;;;;;;8.80;2.30;;;;;;;16.27;100.00;96054.66;4980840;28;20247;-83
2022/06/23 05:55:33;;;;;;;7.97;2.00;;;;;;;16.26;100.00;96052.19;4972521;28;20337;-83
2022/06/23 05:58:10;;;;;;;6.40;2.50;;;;;;;16.25;100.00;96047.81;4959937;28;20254;-83
2022/06/23 06:00:44;;;;;;;14.13;8.03;;;;;;;16.25;100.00;96065.00;4964619;28;20204;-83
2022/06/23 06:03:19;;;;;;;7.40;2.43;;;;;;;16.17;100.00;96060.09;4972422;28;20243;-83
2022/06/23 06:05:49;;;;;;;6.97;3.33;;;;;;;16.17;100.00;96051.09;4969916;28;20270;-83
2022/06/23 06:08:21;;;;;;;7.47;2.20;;;;;;;16.22;100.00;96062.00;4969709;28;20291;-83
2022/06/23 06:10:50;;;;;;;4.33;2.10;;;;;;;16.26;100.00;96052.19;4967142;28;20287;-83
2022/06/23 06:13:21;;;;;;;6.33;2.27;;;;;;;16.28;100.00;96050.00;4987072;28;20208;-83
2022/06/23 06:15:51;;;;;;;5.50;2.20;;;;;;;16.31;100.00;96054.94;4972700;28;20263;-83
2022/06/23 06:18:24;;;;;;;5.87;2.17;;;;;;;16.32;100.00;96056.56;4971861;28;20203;-82
2022/06/23 06:20:54;;;;;;;9.27;2.20;;;;;;;16.27;100.00;96053.81;4990671;28;20208;-83
2022/06/23 06:23:30;;;;;;;6.03;2.33;;;;;;;16.30;100.00;96064.19;4975139;28;20208;-83
2022/06/23 06:25:58;;;;;;;9.90;3.40;;;;;;;16.30;100.00;96069.63;4983120;28;20200;-83
2022/06/23 06:28:30;;;;;;;5.10;1.97;;;;;;;16.29;100.00;96068.00;4971755;28;20206;-83
2022/06/23 06:31:03;;;;;;;9.83;2.40;;;;;;;16.32;100.00;96062.00;4970052;28;20281;-82
2022/06/23 06:33:42;;;;;;;4.43;2.10;;;;;;;16.37;100.00;96059.28;4967932;28;20209;-83
2022/06/23 06:36:24;;;;;;;5.33;2.00;;;;;;;16.40;100.00;96056.00;4969312;28;20245;-82
2022/06/23 06:38:59;;;;;;;10.73;2.47;;;;;;;16.44;100.00;96048.91;4969494;28;20216;-82
2022/06/23 06:41:26;;;;;;;5.93;1.87;;;;;;;16.45;100.00;96050.53;4988009;28;20207;-82
2022/06/23 06:43:54;;;;;;;8.50;2.03;;;;;;;16.52;100.00;96056.53;4963980;28;20275;-83
2022/06/23 06:46:22;;;;;;;7.73;2.00;;;;;;;16.55;100.00;96053.25;4968135;28;20204;-83
2022/06/23 06:48:49;;;;;;;6.17;1.93;;;;;;;16.50;100.00;96053.25;4967911;28;20220;-82
2022/06/23 06:51:22;;;;;;;11.63;3.97;;;;;;;16.52;100.00;96045.63;4970492;28;20204;-82
2022/06/23 06:53:54;;;;;;;7.80;3.20;;;;;;;16.55;100.00;96047.00;4985634;28;20291;-83
2022/06/23 06:56:28;;;;;;;12.73;3.03;;;;;;;16.57;100.00;96042.91;4961608;28;20275;-82
2022/06/23 06:59:00;;;;;;;6.73;2.30;;;;;;;16.63;100.00;96038.28;4971251;28;20215;-81
2022/06/23 07:01:30;;;;;;;8.30;2.63;;;;;;;16.64;100.00;96038.00;4966981;28;20207;-82
2022/06/23 07:03:57;;;;;;;9.00;2.50;;;;;;;16.63;100.00;96033.66;4969498;28;20205;-82
2022/06/23 07:06:33;;;;;;;9.00;2.43;;;;;;;16.66;100.00;96036.94;4971642;28;20224;-82
2022/06/23 07:09:08;;;;;;;4.70;2.57;;;;;;;16.64;100.00;96037.19;4997108;28;20199;-82
2022/06/23 07:11:44;;;;;;;8.27;2.20;;;;;;;16.61;100.00;96035.84;4969973;28;20213;-82
2022/06/23 07:14:18;;;;;;;6.73;2.40;;;;;;;16.63;100.00;96036.38;4974577;28;20214;-82
2022/06/23 07:16:50;;;;;;;8.43;2.30;;;;;;;16.90;100.00;96032.50;4961003;28;20230;-82
2022/06/23 07:19:26;;;;;;;7.80;2.17;;;;;;;17.32;100.00;96037.50;4969987;28;20212;-82
2022/06/23 07:21:59;;;;;;;4.87;1.90;;;;;;;17.83;100.00;96038.06;4961055;28;20214;-82
2022/06/23 07:24:33;;;;;;;6.47;1.83;;;;;;;18.23;100.00;96039.66;4961542;28;20209;-82
2022/06/23 07:27:06;;;;;;;3.77;2.40;;;;;;;18.60;100.00;96041.81;4955070;28;20205;-83
2022/06/23 07:29:40;;;;;;;7.43;1.90;;;;;;;19.05;100.00;96026.03;4959257;28;20213;-83
2022/06/23 07:32:15;;;;;;;8.40;2.03;;;;;;;19.43;100.00;96030.47;4972784;28;20212;-82
2022/06/23 07:34:48;;;;;;;7.20;1.90;;;;;;;19.58;100.00;96013.84;4962059;28;20211;-82
2022/06/23 07:37:24;;;;;;;8.97;2.30;;;;;;;19.63;100.00;96013.81;4988999;28;20315;-83
2022/06/23 07:40:00;;;;;;;6.00;1.90;;;;;;;19.79;100.00;96013.56;4971337;28;20291;-83
2022/06/23 07:42:49;;;;;;;3.35;1.60;;;;;;;20.01;100.00;96006.38;4971438;28;20213;-83
2022/06/23 07:45:20;;;;;;;5.35;1.85;;;;;;;20.23;100.00;96007.69;4963500;28;20322;-83
2022/06/23 07:47:47;;;;;;;5.53;2.45;;;;;;;20.30;100.00;95989.72;4959560;28;20200;-83
2022/06/23 07:50:14;;;;;;;5.78;1.90;;;;;;;20.28;100.00;95986.47;4986966;28;20271;-83
2022/06/23 07:52:43;;;;;;;4.22;1.73;;;;;;;20.29;100.00;95990.03;4971512;28;20316;-83
2022/06/23 07:55:19;;;;;;;5.97;1.90;;;;;;;20.28;100.00;95980.97;4986697;28;20217;-83
2022/06/23 07:57:47;;;;;;;4.63;2.10;;;;;;;20.63;100.00;95978.75;4969546;28;20298;-83
2022/06/23 08:00:15;;;;;;;7.85;2.38;;;;;;;21.03;100.00;95988.09;4970774;28;20274;-82
2022/06/23 08:02:50;;;;;;;7.90;2.13;;;;;;;21.16;100.00;95981.81;4969300;28;20295;-83
2022/06/23 08:05:22;;;;;;;8.48;1.60;;;;;;;21.14;100.00;95979.38;4971710;28;20211;-83
2022/06/23 08:07:50;;;;;;;3.92;2.25;;;;;;;21.27;100.00;95969.50;4970686;28;20299;-83
2022/06/23 08:10:22;;;;;;;6.25;2.15;;;;;;;21.57;100.00;95969.97;4964577;28;20295;-83
2022/06/23 08:12:55;;;;;;;5.35;1.67;;;;;;;21.57;100.00;95964.47;4964812;28;20228;-83
2022/06/23 08:18:26;;;;;;;7.60;2.35;;;;;;;22.28;99.94;95952.63;4962656;28;20259;-83
2022/06/23 08:21:00;;;;;;;5.10;2.17;;;;;;;22.59;94.94;95944.38;4960484;28;20218;-83
2022/06/23 08:23:32;;;;;;;6.00;2.35;;;;;;;22.85;91.32;95950.84;4958256;28;20208;-83
2022/06/23 08:26:01;;;;;;;5.38;1.90;;;;;;;23.04;94.79;95942.31;4960100;28;20286;-84
2022/06/23 08:28:29;;;;;;;6.03;1.80;;;;;;;23.23;92.47;95944.78;4979804;28;20205;-83
2022/06/23 08:30:56;;;;;;;5.05;1.80;;;;;;;23.42;90.16;95944.50;4986442;28;20206;-84
2022/06/23 08:33:23;;;;;;;11.13;2.55;;;;;;;23.54;84.35;95936.44;4968346;28;20213;-83
2022/06/23 08:35:53;;;;;;;5.10;2.22;;;;;;;23.81;80.73;95930.63;4970480;28;20208;-84
2022/06/23 08:38:22;;;;;;;7.00;2.10;;;;;;;24.05;80.57;95927.38;4959677;28;20318;-83
2022/06/23 08:41:02;;;;;;;5.70;2.30;;;;;;;24.23;79.00;95930.94;4988729;28;20291;-84
2022/06/23 08:43:46;;;;;;;7.95;2.30;;;;;;;24.30;78.67;95928.50;4970236;28;20300;-84
2022/06/23 08:46:20;;;;;;;5.82;2.13;;;;;;;24.13;80.01;95908.03;4968901;28;20276;-84
2022/06/23 08:48:56;;;;;;;6.53;2.47;;;;;;;23.94;82.90;95910.34;4968938;28;20267;-84
2022/06/23 08:51:33;;;;;;;8.05;2.15;;;;;;;23.97;81.40;95897.84;4971179;28;20207;-84
2022/06/23 08:54:09;;;;;;;7.10;2.30;;;;;;;24.23;76.86;95898.66;4971480;28;20211;-84
2022/06/23 08:56:44;;;;;;;5.85;2.08;;;;;;;24.41;74.51;95904.94;4970394;28;20250;-84
2022/06/23 08:59:19;;;;;;;9.38;3.17;;;;;;;24.52;74.59;95907.00;4970558;28;20212;-84
2022/06/23 09:01:52;;;;;;;8.07;3.33;;;;;;;24.71;72.82;95892.81;4962638;28;20298;-84
2022/06/23 09:04:28;;;;;;;8.18;2.40;;;;;;;24.92;71.91;95894.84;4965819;28;20217;-84
2022/06/23 09:07:00;;;;;;;6.80;2.20;;;;;;;24.86;72.32;95897.75;4986904;28;20258;-84
2022/06/23 09:09:38;;;;;;;8.75;2.08;;;;;;;24.91;72.76;95893.19;4973387;28;20295;-84
2022/06/23 09:12:17;;;;;;;7.28;2.40;;;;;;;24.72;74.92;95888.91;4990711;28;20239;-84
2022/06/23 09:15:08;;;;;;;9.68;2.30;;;;;;;24.91;73.98;95882.16;4962484;28;20205;-84
2022/06/23 09:18:03;;;;;;;5.65;2.30;;;;;;;25.20;75.56;95884.94;4990486;28;20216;-84
2022/06/23 09:21:02;;;;;;;7.25;2.20;;;;;;;25.35;72.73;95875.25;4975162;28;20199;-85
2022/06/23 09:23:58;;;;;;;8.73;2.30;;;;;;;25.37;71.63;95871.00;4973888;28;20267;-85
2022/06/23 09:26:38;;;;;;;5.93;2.05;;;;;;;25.13;75.18;95862.53;4971541;28;20266;-84
2022/06/23 09:29:15;;;;;;;8.93;2.33;;;;;;;24.81;76.76;95867.59;4960648;28;20204;-84
2022/06/23 09:31:59;;;;;;;13.73;2.63;;;;;;;24.70;76.55;95857.22;4965963;28;20204;-85
2022/06/23 09:34:46;;;;;;;9.85;2.50;;;;;;;24.80;80.15;95854.09;4963038;28;20208;-84
2022/06/23 09:37:47;;;;;;;10.93;2.20;;;;;;;25.13;78.35;95857.84;4968672;28;20513;-84
2022/06/23 09:40:35;;;;;;;4.95;2.25;;;;;;;25.33;74.56;95853.47;4969319;28;20215;-85
2022/06/23 09:43:28;;;;;;;7.18;2.30;;;;;;;25.32;73.45;95838.03;4968910;28;20200;-84
2022/06/23 09:46:22;;;;;;;6.07;2.08;;;;;;;25.44;72.30;95838.09;4985778;28;20216;-85
2022/06/23 09:49:17;;;;;;;7.68;3.08;;;;;;;25.55;72.56;95830.22;4977739;28;20298;-85
2022/06/23 09:52:21;;;;;;;6.80;2.50;;;;;;;25.72;71.87;95834.81;4987018;28;20303;-84
2022/06/23 09:55:04;;;;;;;10.40;2.47;;;;;;;25.58;71.03;95830.34;4973190;28;20215;-85
2022/06/23 09:58:00;;;;;;;6.22;2.00;;;;;;;25.71;69.79;95824.88;4958164;28;20291;-85
2022/06/23 10:00:39;;;;;;;4.18;1.85;;;;;;;25.57;68.82;95822.38;4968280;28;20244;-85
2022/06/23 10:03:22;;;;;;;7.07;2.05;;;;;;;25.34;68.73;95829.41;4973845;28;20262;-85
2022/06/23 10:06:12;;;;;;;6.15;2.45;;;;;;;25.33;68.33;95823.09;4970238;28;20212;-85
2022/06/23 10:08:50;;;;;;;7.15;2.33;;;;;;;25.59;69.42;95812.66;4977756;28;20285;-84
2022/06/23 10:11:41;;;;;;;6.60;2.25;;;;;;;25.77;68.75;95813.31;4973887;28;20207;-85
2022/06/23 10:14:19;;;;;;;5.57;2.10;;;;;;;25.97;68.76;95809.66;4975556;28;20215;-85
2022/06/23 10:17:00;;;;;;;5.63;2.25;;;;;;;25.86;69.50;95802.16;4966688;28;20208;-85
2022/06/23 10:19:58;;;;;;;7.65;1.90;;;;;;;26.00;70.45;95808.19;4982851;28;20266;-85
2022/06/23 10:22:42;;;;;;;4.57;2.05;;;;;;;25.96;70.34;95810.00;4963797;28;20224;-85
2022/06/23 10:25:24;;;;;;;6.07;2.42;;;;;;;25.69;70.71;95814.16;4979105;28;20223;-85
2022/06/23 10:28:10;;;;;;;6.75;2.15;;;;;;;25.61;71.19;95812.28;4969332;28;20254;-85
2022/06/23 10:30:46;;;;;;;6.05;2.28;;;;;;;25.37;73.95;95796.38;4986020;28;20585;-84
2022/06/23 10:33:27;;;;;;;5.05;2.08;;;;;;;25.36;76.68;95810.53;4968292;28;20254;-85
2022/06/23 10:36:11;;;;;;;10.70;2.20;;;;;;;25.33;77.97;95806.50;4966202;28;20212;-85
2022/06/23 10:38:50;;;;;;;11.80;2.40;;;;;;;25.63;75.13;95810.00;4985691;28;20227;-85
2022/06/23 10:41:50;;;;;;;6.85;2.58;;;;;;;25.73;73.83;95806.00;4964891;28;20267;-84
2022/06/23 10:44:50;;;;;;;7.32;2.17;;;;;;;25.58;75.27;95797.19;4978496;28;20219;-86
2022/06/23 10:47:34;;;;;;;6.22;2.22;;;;;;;25.47;75.93;95795.16;4960330;28;20227;-85
2022/06/23 10:50:15;;;;;;;7.18;2.58;;;;;;;25.52;76.02;95786.66;4964667;28;20212;-85
2022/06/23 10:53:09;;;;;;;5.47;2.30;;;;;;;25.66;76.73;95787.22;4984006;28;20208;-84
2022/06/23 10:55:59;;;;;;;5.90;2.40;;;;;;;25.78;77.29;95775.38;4969740;28;20228;-86
2022/06/23 10:59:03;;;;;;;9.95;3.15;;;;;;;26.07;75.16;95774.41;4957261;28;20229;-85
2022/06/23 11:01:48;;;;;;;9.27;2.60;;;;;;;26.11;73.64;95767.06;4976761;28;20211;-86
2022/06/23 11:04:52;;;;;;;5.32;2.42;;;;;;;26.30;72.54;95757.06;4959856;28;20215;-84
2022/06/23 11:07:42;;;;;;;9.68;2.17;;;;;;;26.22;73.07;95779.28;4957455;28;20243;-84
2022/06/23 11:10:30;;;;;;;9.07;2.35;;;;;;;26.30;71.90;95764.53;4978340;28;20310;-84
2022/06/23 11:13:08;;;;;;;3.95;2.17;;;;;;;26.58;70.41;95762.72;4972781;28;20215;-82
2022/06/23 11:15:46;;;;;;;6.60;2.47;;;;;;;26.59;71.12;95769.06;4961516;28;20270;-85
2022/06/23 11:18:29;;;;;;;8.00;2.58;;;;;;;26.72;71.67;95765.94;4967334;28;20308;-86
2022/06/23 11:21:08;;;;;;;4.45;1.90;;;;;;;26.61;68.64;95764.00;4969317;28;20216;-85
2022/06/23 11:23:47;;;;;;;5.85;1.80;;;;;;;26.52;70.94;95749.47;4971571;28;20286;-85
2022/06/23 11:26:30;;;;;;;6.97;2.33;;;;;;;26.74;72.03;95754.50;4968315;28;20215;-85
2022/06/23 11:29:15;;;;;;;7.32;2.38;;;;;;;26.96;69.35;95750.47;4964801;28;20222;-84
2022/06/23 11:31:53;;;;;;;4.75;2.13;;;;;;;26.92;70.29;95750.34;4963748;28;20216;-87
2022/06/23 11:34:43;;;;;;;5.68;2.30;;;;;;;27.16;70.61;95745.91;4973360;28;20302;-85
2022/06/23 11:37:23;;;;;;;7.82;2.45;;;;;;;27.32;69.75;95744.81;4976477;28;20204;-86
2022/06/23 11:40:12;;;;;;;10.93;2.55;;;;;;;27.45;68.50;95731.72;4989662;28;20234;-85
2022/06/23 11:43:00;;;;;;;5.70;2.33;;;;;;;27.62;65.70;95716.78;4965735;28;20251;-85
2022/06/23 11:45:51;;;;;;;5.75;2.08;;;;;;;28.04;67.63;95725.41;4963156;28;20338;-86
2022/06/23 11:48:35;;;;;;;7.82;2.33;;;;;;;28.40;66.96;95722.41;4979200;28;20331;-85
2022/06/23 11:51:18;;;;;;;11.63;3.05;;;;;;;28.52;63.31;95711.19;4965373;28;20207;-87
2022/06/23 11:54:03;;;;;;;7.53;2.40;;;;;;;28.54;64.61;95711.63;4976372;28;20235;-86
2022/06/23 11:56:49;;;;;;;9.45;2.70;;;;;;;28.30;63.05;95714.63;4983145;28;20228;-86
2022/06/23 11:59:32;;;;;;;11.60;2.60;;;;;;;28.35;64.71;95711.56;4966793;28;20322;-85
2022/06/23 12:02:00;;;;;;;5.53;2.50;;;;;;;28.07;64.89;95705.28;4978881;28;20223;-83
2022/06/23 12:05:06;;;;;;;6.80;2.38;;;;;;;28.05;65.53;95696.50;4988135;28;20203;-83
2022/06/23 12:07:47;;;;;;;9.75;2.60;;;;;;;28.26;66.59;95691.50;4889940;29;20214;-82
2022/06/23 12:10:17;;;;;;;8.82;2.47;;;;;;;28.45;67.23;95693.56;4949844;28;20212;-83
2022/06/23 12:12:49;;;;;;;7.20;2.20;;;;;;;28.56;66.08;95683.50;4963908;28;20204;-84
2022/06/23 12:15:20;;;;;;;6.32;2.40;;;;;;;28.60;64.71;95679.63;4970398;28;20283;-84
2022/06/23 12:17:52;;;;;;;9.07;2.47;;;;;;;28.58;66.49;95670.06;4992464;28;20205;-82